createdAt,value
2019-04-05T00:00:12.303Z,62.43
2019-04-05T00:02:42.316Z,62.37
2019-04-05T00:05:11.073Z,63.42
2019-04-05T00:07:38.767Z,63.91
2019-04-05T00:10:07.256Z,63.66
2019-04-05T00:12:35.624Z,63.67
2019-04-05T00:15:15.312Z,63.61
2019-04-05T00:17:34.431Z,63.33
2019-04-05T00:20:04.894Z,62.94
2019-04-05T00:22:32.206Z,63.80
2019-04-05T00:24:59.973Z,64.36
2019-04-05T00:27:27.842Z,64.46
2019-04-05T00:29:55.621Z,64.43
2019-04-05T00:32:23.360Z,64.67
2019-04-05T00:34:51.230Z,64.82
2019-04-05T00:37:19.096Z,65.02
2019-04-05T00:39:46.962Z,64.67
2019-04-05T00:42:14.827Z,65.32
2019-04-05T00:44:42.589Z,65.26
2019-04-05T00:47:10.354Z,65.15
2019-04-05T00:49:38.116Z,66.22
2019-04-05T00:52:05.979Z,66.30
2019-04-05T00:54:34.975Z,66.26
2019-04-05T00:57:02.841Z,65.86
2019-04-05T00:59:30.602Z,66.33
2019-04-05T01:01:59.089Z,66.53
2019-04-05T01:04:26.948Z,66.86
2019-04-05T01:06:54.711Z,66.80
2019-04-05T01:09:22.476Z,66.58
2019-04-05T01:11:50.239Z,66.63
2019-04-05T01:14:19.646Z,66.96
2019-04-05T01:16:47.410Z,67.93
2019-04-05T01:19:15.173Z,67.76
2019-04-05T01:21:45.082Z,67.54
2019-04-05T01:24:12.643Z,67.53
2019-04-05T01:26:40.812Z,67.39
2019-04-05T01:29:08.683Z,67.72
2019-04-05T01:31:36.446Z,67.65
2019-04-05T01:34:06.566Z,68.42
2019-04-05T01:36:34.551Z,68.58
2019-04-05T01:39:03.931Z,68.56
2019-04-05T01:41:31.598Z,68.97
2019-04-05T01:43:59.358Z,68.59
2019-04-05T01:46:27.939Z,68.77
2019-04-05T01:48:55.732Z,69.05
2019-04-05T01:51:23.474Z,70.14
2019-04-05T01:53:51.847Z,69.25
2019-04-05T01:56:19.626Z,69.42
2019-04-05T01:58:47.373Z,69.31
2019-04-05T02:01:15.656Z,69.19
2019-04-05T02:03:43.207Z,69.08
2019-04-05T02:06:10.971Z,69.42
2019-04-05T02:08:38.739Z,69.62
2019-04-05T02:11:06.499Z,70.45
2019-04-05T02:13:34.462Z,70.39
2019-04-05T02:16:06.654Z,70.11
2019-04-05T02:18:31.943Z,70.34
2019-04-05T02:20:59.705Z,69.78
2019-04-05T02:23:27.463Z,68.37
2019-04-05T02:25:55.335Z,67.67
2019-04-05T02:28:25.395Z,67.29
2019-04-05T02:30:53.325Z,67.23
2019-04-05T02:33:21.081Z,66.94
2019-04-05T02:35:48.949Z,67.08
2019-04-05T02:38:16.928Z,67.00
2019-04-05T02:40:44.677Z,67.34
2019-04-05T02:43:12.445Z,67.54
2019-04-05T02:45:40.209Z,67.94
2019-04-05T02:48:08.186Z,67.88
2019-04-05T02:50:37.071Z,67.19
2019-04-05T02:53:05.444Z,67.56
2019-04-05T02:55:34.132Z,68.15
2019-04-05T02:58:01.897Z,68.94
2019-04-05T03:00:29.763Z,69.08
2019-04-05T03:02:58.135Z,69.86
2019-04-05T03:05:26.467Z,70.27
2019-04-05T03:07:56.939Z,70.07
2019-04-05T03:10:51.122Z,70.34
2019-04-05T03:13:22.883Z,70.68
2019-04-05T03:15:51.560Z,71.00
2019-04-05T03:18:19.124Z,70.44
2019-04-05T03:20:46.883Z,70.27
2019-04-05T03:23:14.661Z,70.05
2019-04-05T03:25:42.526Z,69.94
2019-04-05T03:28:10.277Z,70.54
2019-04-05T03:30:38.148Z,70.07
2019-04-05T03:33:06.360Z,70.01
2019-04-05T03:35:35.010Z,70.70
2019-04-05T03:38:02.984Z,70.90
2019-04-05T03:40:30.851Z,71.48
2019-04-05T03:42:58.603Z,71.49
2019-04-05T03:45:26.470Z,71.69
2019-04-05T03:47:54.442Z,72.20
2019-04-05T03:50:22.403Z,72.58
2019-04-05T03:52:50.273Z,72.54
2019-04-05T03:55:18.853Z,72.34
2019-04-05T03:57:46.924Z,72.16
2019-04-05T04:00:14.998Z,71.71
2019-04-05T04:02:43.168Z,71.70
2019-04-05T04:05:10.933Z,71.42
2019-04-05T04:07:39.006Z,71.41
2019-04-05T04:10:10.763Z,71.41
2019-04-05T04:12:38.825Z,71.34
2019-04-05T04:15:14.020Z,70.96
2019-04-05T04:17:42.140Z,71.76
2019-04-05T04:20:34.890Z,71.93
2019-04-05T04:23:04.394Z,71.10
2019-04-05T04:25:32.565Z,70.80
2019-04-05T04:28:00.650Z,70.74
2019-04-05T04:30:28.610Z,70.34
2019-04-05T04:32:56.570Z,70.18
2019-04-05T04:35:24.548Z,69.86
2019-04-05T04:37:52.613Z,68.76
2019-04-05T04:40:20.698Z,68.37
2019-04-05T04:42:48.652Z,68.07
2019-04-05T04:45:16.621Z,67.58
2019-04-05T04:47:45.202Z,67.76
2019-04-05T04:50:13.285Z,67.00
2019-04-05T04:52:41.266Z,66.54
2019-04-05T04:55:09.820Z,65.45
2019-04-05T04:57:39.137Z,65.25
2019-04-05T05:00:07.298Z,63.97
2019-04-05T05:02:35.672Z,64.20
2019-04-05T05:05:05.794Z,62.33
2019-04-05T05:07:33.350Z,60.98
2019-04-05T05:10:03.434Z,60.35
2019-04-05T05:12:31.234Z,59.92
2019-04-05T05:14:59.505Z,59.73
2019-04-05T05:17:37.683Z,58.43
2019-04-05T05:19:56.786Z,58.08
2019-04-05T05:22:24.962Z,57.56
2019-04-05T05:24:52.921Z,58.18
2019-04-05T05:27:20.987Z,56.91
2019-04-05T05:29:48.953Z,55.50
2019-04-05T05:32:16.923Z,55.96
2019-04-05T05:34:44.894Z,54.69
2019-04-05T05:37:12.967Z,53.62
2019-04-05T05:39:41.039Z,53.27
2019-04-05T05:42:09.000Z,53.37
2019-04-05T05:44:36.969Z,52.71
2019-04-05T05:47:05.043Z,52.38
2019-04-05T05:49:33.008Z,54.70
2019-04-05T05:52:00.877Z,54.36
2019-04-05T05:54:30.289Z,53.84
2019-04-05T05:56:58.146Z,53.56
2019-04-05T05:59:29.677Z,50.49
2019-04-05T06:01:56.028Z,48.53
2019-04-05T06:04:23.897Z,49.65
2019-04-05T06:06:51.961Z,47.29
2019-04-05T06:09:19.941Z,47.71
2019-04-05T06:11:48.006Z,46.48
2019-04-05T06:14:16.070Z,45.94
2019-04-05T06:16:46.497Z,46.08
2019-04-05T06:19:14.466Z,45.21
2019-04-05T06:21:42.539Z,44.47
2019-04-05T06:24:10.606Z,45.57
2019-04-05T06:26:38.542Z,44.80
2019-04-05T06:29:06.446Z,44.45
2019-04-05T06:31:34.414Z,44.15
2019-04-05T06:34:02.380Z,43.43
2019-04-05T06:36:30.857Z,43.35
2019-04-05T06:38:58.783Z,43.17
2019-04-05T06:41:26.796Z,42.17
2019-04-05T06:43:54.761Z,41.84
2019-04-05T06:46:22.736Z,42.04
2019-04-05T06:48:50.701Z,41.31
2019-04-05T06:51:19.486Z,39.98
2019-04-05T06:53:47.865Z,41.23
2019-04-05T06:56:15.741Z,40.66
2019-04-05T06:58:46.225Z,40.14
2019-04-05T07:01:13.514Z,40.57
2019-04-05T07:03:41.176Z,40.07
2019-04-05T07:06:09.150Z,40.07
2019-04-05T07:08:37.124Z,39.77
2019-04-05T07:11:05.034Z,39.77
2019-04-05T07:13:33.051Z,39.94
2019-04-05T07:16:01.023Z,38.39
2019-04-05T07:18:35.577Z,38.10
2019-04-05T07:20:59.004Z,37.38
2019-04-05T07:23:27.068Z,37.67
2019-04-05T07:25:55.149Z,38.15
2019-04-05T07:28:25.146Z,38.15
2019-04-05T07:30:53.025Z,37.55
2019-04-05T07:33:20.992Z,36.75
2019-04-05T07:35:49.172Z,36.38
2019-04-05T07:38:17.235Z,35.97
2019-04-05T07:40:44.998Z,36.31
2019-04-05T07:43:13.271Z,35.94
2019-04-05T07:45:41.343Z,36.29
2019-04-05T07:48:09.426Z,36.15
2019-04-05T07:50:38.308Z,35.40
2019-04-05T07:53:06.792Z,34.97
2019-04-05T07:55:34.858Z,34.73
2019-04-05T07:58:02.826Z,34.47
2019-04-05T08:00:43.795Z,33.93
2019-04-05T08:03:12.070Z,32.96
2019-04-05T08:05:39.840Z,34.03
2019-04-05T08:08:11.470Z,32.98
2019-04-05T08:10:39.359Z,32.87
2019-04-05T08:13:07.578Z,33.17
2019-04-05T08:15:35.608Z,33.00
2019-04-05T08:18:03.571Z,32.21
2019-04-05T08:20:31.537Z,32.88
2019-04-05T08:22:59.609Z,33.67
2019-04-05T08:25:27.886Z,33.43
2019-04-05T08:27:55.547Z,32.89
2019-04-05T08:30:23.518Z,33.02
2019-04-05T08:32:51.452Z,33.07
2019-04-05T08:35:19.663Z,33.26
2019-04-05T08:37:47.728Z,32.66
2019-04-05T08:40:16.316Z,31.29
2019-04-05T08:42:44.586Z,30.90
2019-04-05T08:45:12.559Z,30.89
2019-04-05T08:47:40.457Z,30.91
2019-04-05T08:50:08.697Z,30.23
2019-04-05T08:52:36.666Z,30.72
2019-04-05T08:55:05.352Z,30.81
2019-04-05T08:57:33.116Z,30.45
2019-04-05T09:00:01.095Z,30.97
2019-04-05T09:02:29.462Z,30.44
2019-04-05T09:04:57.332Z,30.44
2019-04-05T09:07:25.401Z,30.19
2019-04-05T09:09:53.468Z,30.99
2019-04-05T09:12:21.533Z,31.16
2019-04-05T09:14:49.605Z,30.78
2019-04-05T09:17:17.374Z,30.54
2019-04-05T09:19:45.444Z,30.65
2019-04-05T09:22:13.407Z,30.56
2019-04-05T09:24:41.479Z,30.27
2019-04-05T09:27:09.553Z,29.92
2019-04-05T09:29:37.415Z,29.05
2019-04-05T09:32:05.486Z,29.14
2019-04-05T09:34:33.566Z,29.05
2019-04-05T09:37:01.636Z,28.72
2019-04-05T09:39:29.810Z,27.77
2019-04-05T09:41:57.780Z,27.66
2019-04-05T09:44:25.839Z,27.25
2019-04-05T09:46:53.811Z,27.94
2019-04-05T09:49:21.774Z,28.02
2019-04-05T09:51:49.956Z,28.50
2019-04-05T09:54:18.599Z,28.59
2019-04-05T09:56:47.421Z,28.35
2019-04-05T09:59:15.393Z,28.10
2019-04-05T10:01:43.810Z,28.93
2019-04-05T10:04:11.636Z,28.71
2019-04-05T10:06:39.711Z,28.33
2019-04-05T10:09:08.185Z,28.88
2019-04-05T10:11:36.476Z,29.14
2019-04-05T10:14:04.634Z,28.85
2019-04-05T10:16:32.609Z,29.30
2019-04-05T10:19:00.575Z,29.40
2019-04-05T10:21:28.549Z,29.46
2019-04-05T10:23:56.409Z,29.26
2019-04-05T10:26:24.480Z,29.06
2019-04-05T10:28:52.553Z,29.03
2019-04-05T10:31:20.415Z,29.26
2019-04-05T10:33:48.384Z,28.89
2019-04-05T10:36:16.462Z,28.96
2019-04-05T10:38:44.628Z,28.70
2019-04-05T10:41:12.539Z,29.11
2019-04-05T10:43:40.561Z,29.71
2019-04-05T10:46:08.736Z,29.78
2019-04-05T10:48:36.912Z,29.58
2019-04-05T10:51:04.977Z,29.65
2019-04-05T10:53:33.871Z,29.17
2019-04-05T10:56:01.638Z,29.63
2019-04-05T10:58:29.603Z,29.24
2019-04-05T11:00:58.095Z,29.00
2019-04-05T11:03:25.950Z,29.43
2019-04-05T11:05:53.815Z,29.14
2019-04-05T11:08:21.782Z,28.51
2019-04-05T11:10:49.754Z,28.92
2019-04-05T11:13:17.924Z,29.16
2019-04-05T11:15:45.791Z,28.52
2019-04-05T11:18:13.759Z,28.48
2019-04-05T11:20:42.341Z,28.99
2019-04-05T11:23:11.129Z,29.21
2019-04-05T11:25:39.197Z,29.29
2019-04-05T11:28:07.274Z,28.85
2019-04-05T11:30:45.076Z,28.76
2019-04-05T11:33:13.151Z,28.06
2019-04-05T11:35:41.524Z,28.05
2019-04-05T11:38:10.304Z,28.18
2019-04-05T11:40:38.383Z,28.29
2019-04-05T11:43:07.059Z,27.81
2019-04-05T11:45:35.245Z,28.01
2019-04-05T11:48:04.332Z,28.18
2019-04-05T11:50:34.732Z,28.47
2019-04-05T11:53:02.619Z,28.66
2019-04-05T11:55:31.304Z,28.34
2019-04-05T11:57:59.585Z,27.78
2019-04-05T12:00:29.606Z,28.25
2019-04-05T12:03:09.813Z,28.40
2019-04-05T12:05:37.620Z,28.00
2019-04-05T12:08:05.482Z,27.64
2019-04-05T12:10:33.760Z,27.73
2019-04-05T12:13:01.831Z,28.04
2019-04-05T12:15:29.702Z,28.03
2019-04-05T12:17:57.661Z,27.53
2019-04-05T12:20:25.839Z,27.41
2019-04-05T12:22:53.911Z,27.74
2019-04-05T12:25:21.876Z,27.67
2019-04-05T12:27:49.874Z,27.64
2019-04-05T12:30:19.670Z,27.06
2019-04-05T12:32:48.924Z,27.06
2019-04-05T12:35:17.228Z,27.32
2019-04-05T12:37:50.615Z,27.21
2019-04-05T12:40:14.957Z,27.45
2019-04-05T12:42:43.899Z,27.42
2019-04-05T12:45:14.666Z,27.94
2019-04-05T12:47:45.345Z,27.82
2019-04-05T12:50:14.163Z,27.63
2019-04-05T12:52:41.616Z,27.29
2019-04-05T12:55:10.396Z,26.98
2019-04-05T12:57:38.282Z,26.98
2019-04-05T13:00:13.195Z,27.23
2019-04-05T13:02:40.250Z,27.45
2019-04-05T13:05:09.439Z,26.98
2019-04-05T13:07:37.715Z,27.00
2019-04-05T13:10:05.794Z,26.91
2019-04-05T13:12:33.959Z,27.34
2019-04-05T13:15:12.215Z,26.84
2019-04-05T13:17:32.154Z,27.04
2019-04-05T13:20:00.874Z,28.00
2019-04-05T13:22:32.392Z,27.15
2019-04-05T13:24:59.138Z,26.16
2019-04-05T13:27:28.834Z,26.32
2019-04-05T13:29:56.699Z,25.84
2019-04-05T13:32:25.139Z,25.88
2019-04-05T13:34:53.530Z,25.92
2019-04-05T13:37:22.658Z,26.20
2019-04-05T13:39:50.798Z,26.69
2019-04-05T13:42:18.898Z,26.71
2019-04-05T13:44:46.884Z,26.70
2019-04-05T13:47:14.837Z,26.82
2019-04-05T13:49:42.804Z,27.19
2019-04-05T13:52:12.021Z,26.60
2019-04-05T13:54:41.001Z,26.59
2019-04-05T13:57:11.386Z,26.77
2019-04-05T13:59:38.367Z,26.97
2019-04-05T14:02:06.972Z,26.64
2019-04-05T14:04:34.915Z,26.63
2019-04-05T14:07:03.837Z,26.79
2019-04-05T14:09:31.794Z,27.20
2019-04-05T14:11:59.879Z,27.19
2019-04-05T14:14:28.518Z,27.46
2019-04-05T14:16:57.016Z,27.34
2019-04-05T14:19:25.099Z,27.46
2019-04-05T14:21:53.741Z,27.35
2019-04-05T14:24:23.480Z,27.29
2019-04-05T14:26:51.751Z,26.83
2019-04-05T14:29:20.334Z,27.32
2019-04-05T14:31:48.420Z,26.84
2019-04-05T14:34:16.304Z,26.78
2019-04-05T14:36:44.758Z,26.81
2019-04-05T14:39:12.927Z,26.56
2019-04-05T14:41:40.787Z,26.85
2019-04-05T14:44:08.758Z,27.48
2019-04-05T14:46:38.353Z,27.38
2019-04-05T14:49:06.433Z,27.05
2019-04-05T14:51:34.610Z,27.03
2019-04-05T14:54:03.524Z,27.14
2019-04-05T14:56:32.079Z,26.98
2019-04-05T14:59:00.152Z,26.58
2019-04-05T15:01:28.630Z,26.72
2019-04-05T15:03:56.301Z,26.73
2019-04-05T15:06:26.506Z,26.98
2019-04-05T15:08:53.864Z,27.33
2019-04-05T15:11:21.832Z,27.40
2019-04-05T15:13:49.906Z,27.03
2019-04-05T15:16:17.964Z,26.83
2019-04-05T15:18:46.017Z,26.85
2019-04-05T15:21:13.909Z,26.88
2019-04-05T15:23:45.254Z,27.10
2019-04-05T15:26:11.897Z,27.57
2019-04-05T15:28:39.660Z,27.14
2019-04-05T15:31:07.626Z,27.42
2019-04-05T15:33:36.413Z,27.61
2019-04-05T15:36:04.589Z,27.60
2019-04-05T15:38:32.560Z,27.27
2019-04-05T15:41:00.735Z,27.53
2019-04-05T15:43:28.814Z,27.18
2019-04-05T15:45:56.770Z,27.19
2019-04-05T15:48:24.737Z,27.46
2019-04-05T15:50:55.879Z,26.84
2019-04-05T15:53:22.725Z,26.73
2019-04-05T15:55:50.488Z,27.07
2019-04-05T15:58:18.458Z,27.50
2019-04-05T16:00:46.935Z,27.63
2019-04-05T16:03:14.706Z,27.76
2019-04-05T16:05:42.671Z,27.92
2019-04-05T16:08:10.759Z,28.34
2019-04-05T16:10:38.704Z,28.73
2019-04-05T16:13:08.270Z,28.95
2019-04-05T16:15:36.175Z,28.64
2019-04-05T16:18:04.466Z,28.60
2019-04-05T16:20:32.323Z,28.79
2019-04-05T16:23:00.286Z,29.01
2019-04-05T16:25:28.362Z,29.38
2019-04-05T16:27:56.441Z,29.45
2019-04-05T16:30:24.504Z,29.57
2019-04-05T16:32:52.365Z,29.44
2019-04-05T16:35:20.540Z,29.72
2019-04-05T16:37:48.622Z,29.92
2019-04-05T16:40:16.584Z,29.84
2019-04-05T16:42:44.556Z,29.67
2019-04-05T16:45:12.516Z,29.55
2019-04-05T16:47:40.792Z,29.45
2019-04-05T16:50:09.062Z,29.67
2019-04-05T16:52:44.761Z,31.01
2019-04-05T16:55:07.252Z,31.29
2019-04-05T16:57:35.336Z,31.43
2019-04-05T17:00:06.169Z,31.30
2019-04-05T17:02:34.745Z,31.84
2019-04-05T17:05:04.358Z,31.75
2019-04-05T17:07:32.113Z,31.79
2019-04-05T17:09:59.878Z,31.76
2019-04-05T17:12:27.952Z,32.01
2019-04-05T17:14:56.119Z,32.40
2019-04-05T17:17:23.988Z,32.84
2019-04-05T17:19:52.062Z,33.16
2019-04-05T17:22:20.135Z,33.20
2019-04-05T17:24:48.005Z,33.37
2019-04-05T17:27:16.167Z,33.27
2019-04-05T17:29:44.039Z,33.44
2019-04-05T17:32:12.000Z,34.28
2019-04-05T17:34:40.071Z,34.55
2019-04-05T17:37:09.270Z,33.86
2019-04-05T17:39:37.443Z,33.61
2019-04-05T17:42:05.413Z,33.67
2019-04-05T17:44:33.449Z,33.81
2019-04-05T17:47:01.553Z,34.85
2019-04-05T17:49:29.724Z,34.18
2019-04-05T17:51:57.799Z,34.66
2019-04-05T17:54:26.385Z,34.72
2019-04-05T17:56:54.252Z,34.30
2019-04-05T17:59:22.217Z,36.15
2019-04-05T18:01:50.800Z,36.99
2019-04-05T18:04:18.975Z,35.17
2019-04-05T18:06:47.144Z,36.05
2019-04-05T18:09:15.141Z,37.02
2019-04-05T18:11:43.202Z,37.23
2019-04-05T18:14:11.255Z,37.10
2019-04-05T18:16:39.325Z,35.30
2019-04-05T18:19:07.397Z,35.04
2019-04-05T18:21:36.295Z,35.58
2019-04-05T18:24:04.355Z,35.74
2019-04-05T18:26:32.329Z,35.87
2019-04-05T18:29:00.404Z,35.92
2019-04-05T18:31:28.575Z,35.95
2019-04-05T18:33:56.537Z,36.77
2019-04-05T18:36:24.514Z,36.45
2019-04-05T18:38:52.578Z,36.45
2019-04-05T18:41:20.440Z,36.60
2019-04-05T18:43:48.412Z,35.84
2019-04-05T18:46:16.383Z,36.65
2019-04-05T18:48:46.292Z,36.18
2019-04-05T18:51:14.465Z,36.56
2019-04-05T18:53:42.849Z,36.41
2019-04-05T18:56:10.602Z,36.85
2019-04-05T18:58:39.039Z,37.18
2019-04-05T19:01:07.464Z,37.56
2019-04-05T19:03:35.432Z,37.12
2019-04-05T19:06:04.219Z,36.20
2019-04-05T19:08:39.420Z,36.14
2019-04-05T19:11:02.012Z,36.00
2019-04-05T19:13:29.965Z,35.82
2019-04-05T19:15:58.140Z,35.71
2019-04-05T19:18:26.221Z,35.05
2019-04-05T19:20:54.280Z,35.36
2019-04-05T19:23:22.356Z,35.17
2019-04-05T19:25:50.318Z,35.27
2019-04-05T19:28:18.595Z,35.23
2019-04-05T19:48:31.095Z,39.14
2019-04-05T19:50:45.261Z,38.69
2019-04-05T19:53:13.842Z,39.11
2019-04-05T19:55:41.723Z,39.46
2019-04-05T19:58:09.781Z,39.99
2019-04-05T20:00:38.569Z,40.33
2019-04-05T20:03:06.543Z,41.01
2019-04-05T20:05:34.915Z,40.98
2019-04-05T20:08:02.915Z,43.18
2019-04-05T20:10:30.857Z,44.06
2019-04-05T20:12:59.030Z,42.85
2019-04-05T20:15:26.892Z,42.12
2019-04-05T20:17:54.861Z,43.86
2019-04-05T20:20:23.030Z,42.71
2019-04-05T20:22:50.896Z,42.75
2019-04-05T20:25:19.051Z,43.23
2019-04-05T20:27:47.048Z,44.01
2019-04-05T20:30:15.025Z,44.67
2019-04-05T20:32:43.079Z,46.21
2019-04-05T20:35:11.146Z,48.54
2019-04-05T20:37:41.375Z,49.21
2019-04-05T20:40:10.259Z,48.17
2019-04-05T20:42:38.333Z,49.89
2019-04-05T20:45:06.199Z,50.02
2019-04-05T20:47:34.271Z,50.69
2019-04-05T20:50:03.880Z,50.88
2019-04-05T20:52:31.844Z,51.50
2019-04-05T20:54:59.708Z,52.54
2019-04-05T20:57:27.676Z,52.93
2019-04-05T20:59:55.545Z,52.95
2019-04-05T21:02:24.025Z,54.49
2019-04-05T21:04:52.092Z,54.35
2019-04-05T21:07:20.064Z,54.17
2019-04-05T21:09:48.107Z,55.34
2019-04-05T21:12:15.996Z,56.97
2019-04-05T21:14:44.071Z,57.90
2019-04-05T21:17:12.048Z,57.84
2019-04-05T21:19:40.106Z,60.00
2019-04-05T21:22:09.106Z,58.05
2019-04-05T21:24:37.122Z,57.21
2019-04-05T21:27:05.139Z,57.02
2019-04-05T21:29:33.313Z,57.06
2019-04-05T21:32:01.283Z,56.76
2019-04-05T21:34:29.263Z,57.49
2019-04-05T21:36:57.426Z,58.01
2019-04-05T21:39:25.524Z,57.83
2019-04-05T21:41:53.255Z,58.15
2019-04-05T21:44:21.223Z,59.09
2019-04-05T21:46:49.295Z,59.99
2019-04-05T21:49:17.264Z,59.04
2019-04-05T21:51:45.343Z,58.27
2019-04-05T21:54:15.252Z,58.06
2019-04-05T21:56:45.459Z,58.30
2019-04-05T21:59:13.131Z,58.51
2019-04-05T22:01:42.434Z,59.70
2019-04-05T22:04:10.397Z,59.97
2019-04-05T22:06:38.471Z,60.04
2019-04-05T22:09:07.877Z,60.13
2019-04-05T22:11:36.353Z,59.67
2019-04-05T22:14:04.834Z,59.09
2019-04-05T22:16:32.906Z,59.31
2019-04-05T22:19:01.901Z,59.86
2019-04-05T22:21:29.861Z,60.19
2019-04-05T22:23:57.935Z,60.41
2019-04-05T22:26:25.804Z,60.63
2019-04-05T22:28:53.771Z,60.38
2019-04-05T22:31:21.743Z,60.39
2019-04-05T22:33:49.605Z,60.25
2019-04-05T22:36:17.568Z,60.43
2019-04-05T22:38:45.547Z,60.78
2019-04-05T22:41:13.422Z,61.32
2019-04-05T22:43:41.274Z,61.51
2019-04-05T22:46:09.256Z,61.94
2019-04-05T22:48:37.212Z,61.70
2019-04-05T22:51:05.789Z,61.92
2019-04-05T22:53:34.373Z,62.62
2019-04-05T22:56:02.651Z,62.55
2019-04-05T22:58:30.615Z,62.88
2019-04-05T23:00:59.612Z,62.96
2019-04-05T23:03:27.375Z,63.07
2019-04-05T23:05:56.261Z,63.15
2019-04-05T23:08:24.440Z,62.09
2019-04-05T23:10:52.303Z,60.96
2019-04-05T23:13:20.070Z,61.17
2019-04-05T23:15:47.937Z,61.22
2019-04-05T23:18:15.715Z,61.63
2019-04-05T23:20:43.661Z,62.75
2019-04-05T23:23:11.426Z,62.83
2019-04-05T23:25:39.294Z,62.87
2019-04-05T23:28:07.058Z,63.21
2019-04-05T23:30:34.821Z,62.37
2019-04-05T23:33:02.795Z,62.03
2019-04-05T23:35:30.757Z,59.52
2019-04-05T23:37:58.904Z,57.82
2019-04-05T23:40:29.667Z,58.72
2019-04-05T23:42:57.428Z,58.77
2019-04-05T23:45:25.289Z,54.74
2019-04-05T23:47:53.369Z,54.28
2019-04-05T23:50:21.226Z,53.61
2019-04-05T23:52:49.816Z,52.64
2019-04-05T23:55:17.879Z,52.85
2019-04-05T23:57:45.819Z,53.00
